sensor_id;sensor_type;location;lat;lon;timestamp;pressure;altitude;pressure_sealevel;temperature;humidity
75418;BME280;63997;52.112;5.420;2023-06-14T00:02:14;101620.25;;;17.73;51.75
75418;BME280;63997;52.112;5.420;2023-06-14T00:04:42;101629.00;;;17.69;53.44
75418;BME280;63997;52.112;5.420;2023-06-14T00:07:09;101630.84;;;17.65;53.12
75418;BME280;63997;52.112;5.420;2023-06-14T00:09:39;101636.22;;;17.65;52.86
75418;BME280;63997;52.112;5.420;2023-06-14T00:12:06;101629.28;;;17.64;52.78
75418;BME280;63997;52.112;5.420;2023-06-14T00:14:33;101623.91;;;17.64;52.31
75418;BME280;63997;52.112;5.420;2023-06-14T00:16:59;101625.81;;;17.64;51.71
75418;BME280;63997;52.112;5.420;2023-06-14T00:19:26;101631.53;;;17.62;52.62
75418;BME280;63997;52.112;5.420;2023-06-14T00:21:53;101628.56;;;17.67;53.03
75418;BME280;63997;52.112;5.420;2023-06-14T00:24:19;101625.53;;;17.69;51.76
75418;BME280;63997;52.112;5.420;2023-06-14T00:26:46;101634.41;;;17.69;51.85
75418;BME280;63997;52.112;5.420;2023-06-14T00:29:13;101633.94;;;17.67;52.27
75418;BME280;63997;52.112;5.420;2023-06-14T00:31:39;101635.53;;;17.68;52.27
75418;BME280;63997;52.112;5.420;2023-06-14T00:34:06;101636.63;;;17.67;52.45
75418;BME280;63997;52.112;5.420;2023-06-14T00:36:32;101639.31;;;17.67;52.44
75418;BME280;63997;52.112;5.420;2023-06-14T00:38:59;101630.84;;;17.65;52.12
75418;BME280;63997;52.112;5.420;2023-06-14T00:41:25;101631.53;;;17.62;51.62
75418;BME280;63997;52.112;5.420;2023-06-14T00:43:53;101636.94;;;17.62;51.12
75418;BME280;63997;52.112;5.420;2023-06-14T00:46:22;101637.34;;;17.64;52.62
75418;BME280;63997;52.112;5.420;2023-06-14T00:48:48;101637.69;;;17.63;53.05
75418;BME280;63997;52.112;5.420;2023-06-14T00:51:15;101632.91;;;17.56;53.06
75418;BME280;63997;52.112;5.420;2023-06-14T00:53:41;101637.34;;;17.49;52.80
75418;BME280;63997;52.112;5.420;2023-06-14T00:56:15;101636.56;;;17.48;52.55
75418;BME280;63997;52.112;5.420;2023-06-14T00:58:43;101636.47;;;17.44;52.72
75418;BME280;63997;52.112;5.420;2023-06-14T01:01:10;101631.84;;;17.45;53.29
75418;BME280;63997;52.112;5.420;2023-06-14T01:03:36;101634.81;;;17.40;53.59
75418;BME280;63997;52.112;5.420;2023-06-14T01:06:13;101634.56;;;17.29;53.70
75418;BME280;63997;52.112;5.420;2023-06-14T01:08:51;101637.56;;;17.28;53.06
75418;BME280;63997;52.112;5.420;2023-06-14T01:11:28;101636.34;;;17.25;52.96
75418;BME280;63997;52.112;5.420;2023-06-14T01:13:57;101628.28;;;17.25;54.88
75418;BME280;63997;52.112;5.420;2023-06-14T01:16:26;101634.69;;;17.21;55.03
75418;BME280;63997;52.112;5.420;2023-06-14T01:18:53;101628.25;;;17.09;54.06
75418;BME280;63997;52.112;5.420;2023-06-14T01:21:24;101627.31;;;17.02;53.92
75418;BME280;63997;52.112;5.420;2023-06-14T01:23:51;101634.81;;;16.96;55.99
75418;BME280;63997;52.112;5.420;2023-06-14T01:26:21;101630.47;;;16.91;54.26
75418;BME280;63997;52.112;5.420;2023-06-14T01:28:49;101636.09;;;16.86;55.14
75418;BME280;63997;52.112;5.420;2023-06-14T01:31:19;101638.00;;;16.86;54.27
75418;BME280;63997;52.112;5.420;2023-06-14T01:33:49;101636.44;;;16.85;57.35
75418;BME280;63997;52.112;5.420;2023-06-14T01:36:18;101631.53;;;16.75;56.09
75418;BME280;63997;52.112;5.420;2023-06-14T01:38:46;101638.72;;;16.71;55.20
75418;BME280;63997;52.112;5.420;2023-06-14T01:41:15;101634.78;;;16.68;55.79
75418;BME280;63997;52.112;5.420;2023-06-14T01:43:42;101640.03;;;16.64;55.02
75418;BME280;63997;52.112;5.420;2023-06-14T01:46:09;101641.84;;;16.60;55.48
75418;BME280;63997;52.112;5.420;2023-06-14T01:48:36;101647.72;;;16.50;57.93
75418;BME280;63997;52.112;5.420;2023-06-14T01:51:03;101648.84;;;16.37;55.94
75418;BME280;63997;52.112;5.420;2023-06-14T01:53:29;101644.81;;;16.31;55.89
75418;BME280;63997;52.112;5.420;2023-06-14T01:55:56;101642.47;;;16.29;56.67
75418;BME280;63997;52.112;5.420;2023-06-14T01:58:22;101642.13;;;16.31;56.08
75418;BME280;63997;52.112;5.420;2023-06-14T02:00:50;101640.22;;;16.31;56.60
75418;BME280;63997;52.112;5.420;2023-06-14T02:03:17;101638.78;;;16.34;57.10
75418;BME280;63997;52.112;5.420;2023-06-14T02:05:45;101634.50;;;16.33;56.06
75418;BME280;63997;52.112;5.420;2023-06-14T02:08:12;101643.38;;;16.33;56.92
75418;BME280;63997;52.112;5.420;2023-06-14T02:10:38;101634.97;;;16.35;55.92
75418;BME280;63997;52.112;5.420;2023-06-14T02:13:04;101636.41;;;16.32;55.51
75418;BME280;63997;52.112;5.420;2023-06-14T02:15:31;101633.41;;;16.34;56.86
75418;BME280;63997;52.112;5.420;2023-06-14T02:18:04;101633.06;;;16.35;56.22
75418;BME280;63997;52.112;5.420;2023-06-14T02:20:31;101634.44;;;16.29;55.44
75418;BME280;63997;52.112;5.420;2023-06-14T02:22:58;101636.34;;;16.29;56.65
75418;BME280;63997;52.112;5.420;2023-06-14T02:25:24;101637.00;;;16.26;56.35
75418;BME280;63997;52.112;5.420;2023-06-14T02:27:51;101631.53;;;16.22;56.51
75418;BME280;63997;52.112;5.420;2023-06-14T02:30:17;101639.13;;;16.20;57.58
75418;BME280;63997;52.112;5.420;2023-06-14T02:32:44;101635.53;;;16.16;56.06
75418;BME280;63997;52.112;5.420;2023-06-14T02:35:10;101636.56;;;16.11;57.39
75418;BME280;63997;52.112;5.420;2023-06-14T02:37:37;101636.81;;;16.06;56.44
75418;BME280;63997;52.112;5.420;2023-06-14T02:40:05;101636.81;;;16.06;56.49
75418;BME280;63997;52.112;5.420;2023-06-14T02:42:32;101641.81;;;16.08;56.15
75418;BME280;63997;52.112;5.420;2023-06-14T02:44:58;101635.47;;;16.00;55.68
75418;BME280;63997;52.112;5.420;2023-06-14T02:47:24;101640.59;;;15.93;56.78
75418;BME280;63997;52.112;5.420;2023-06-14T02:49:51;101643.50;;;15.88;55.95
75418;BME280;63997;52.112;5.420;2023-06-14T02:52:18;101647.63;;;15.85;56.98
75418;BME280;63997;52.112;5.420;2023-06-14T02:54:44;101646.06;;;15.84;57.10
75418;BME280;63997;52.112;5.420;2023-06-14T02:57:13;101648.28;;;15.82;56.39
75418;BME280;63997;52.112;5.420;2023-06-14T02:59:39;101647.28;;;15.75;56.70
75418;BME280;63997;52.112;5.420;2023-06-14T03:02:06;101654.91;;;15.73;57.36
75418;BME280;63997;52.112;5.420;2023-06-14T03:04:32;101654.44;;;15.71;57.04
75418;BME280;63997;52.112;5.420;2023-06-14T03:07:03;101659.34;;;15.69;57.08
75418;BME280;63997;52.112;5.420;2023-06-14T03:09:36;101659.00;;;15.70;56.79
75418;BME280;63997;52.112;5.420;2023-06-14T03:12:06;101658.44;;;15.65;57.44
75418;BME280;63997;52.112;5.420;2023-06-14T03:14:36;101659.44;;;15.60;57.71
75418;BME280;63997;52.112;5.420;2023-06-14T03:17:03;101671.59;;;15.57;58.42
75418;BME280;63997;52.112;5.420;2023-06-14T03:19:31;101672.28;;;15.54;58.22
75418;BME280;63997;52.112;5.420;2023-06-14T03:21:57;101672.16;;;15.51;58.78
75418;BME280;63997;52.112;5.420;2023-06-14T03:24:25;101675.38;;;15.44;59.71
75418;BME280;63997;52.112;5.420;2023-06-14T03:26:54;101669.22;;;15.44;58.35
75418;BME280;63997;52.112;5.420;2023-06-14T03:29:20;101672.56;;;15.41;60.03
75418;BME280;63997;52.112;5.420;2023-06-14T03:32:01;101668.66;;;15.38;58.12
75418;BME280;63997;52.112;5.420;2023-06-14T03:34:28;101675.91;;;15.38;59.67
75418;BME280;63997;52.112;5.420;2023-06-14T03:36:55;101683.16;;;15.37;59.06
75418;BME280;63997;52.112;5.420;2023-06-14T03:39:22;101679.38;;;15.38;60.52
75418;BME280;63997;52.112;5.420;2023-06-14T03:41:48;101680.81;;;15.35;59.72
75418;BME280;63997;52.112;5.420;2023-06-14T03:44:16;101680.81;;;15.35;59.65
75418;BME280;63997;52.112;5.420;2023-06-14T03:46:45;101679.69;;;15.37;60.04
75418;BME280;63997;52.112;5.420;2023-06-14T03:49:12;101686.84;;;15.32;59.71
75418;BME280;63997;52.112;5.420;2023-06-14T03:51:39;101690.50;;;15.28;60.72
75418;BME280;63997;52.112;5.420;2023-06-14T03:54:06;101694.63;;;15.25;60.73
75418;BME280;63997;52.112;5.420;2023-06-14T03:56:53;101699.66;;;15.27;60.98
75418;BME280;63997;52.112;5.420;2023-06-14T03:59:19;101701.44;;;15.23;60.51
75418;BME280;63997;52.112;5.420;2023-06-14T04:01:46;101695.94;;;15.19;60.79
75418;BME280;63997;52.112;5.420;2023-06-14T04:04:13;101697.63;;;15.24;60.46
75418;BME280;63997;52.112;5.420;2023-06-14T04:06:39;101705.03;;;15.27;60.58
75418;BME280;63997;52.112;5.420;2023-06-14T04:09:07;101700.75;;;15.26;60.65
75418;BME280;63997;52.112;5.420;2023-06-14T04:11:34;101712.28;;;15.26;61.28
75418;BME280;63997;52.112;5.420;2023-06-14T04:14:01;101711.16;;;15.27;61.49
75418;BME280;63997;52.112;5.420;2023-06-14T04:16:28;101715.53;;;15.32;61.47
75418;BME280;63997;52.112;5.420;2023-06-14T04:18:55;101716.44;;;15.36;62.37
75418;BME280;63997;52.112;5.420;2023-06-14T04:21:22;101715.66;;;15.35;63.82
75418;BME280;63997;52.112;5.420;2023-06-14T04:23:50;101714.09;;;15.34;63.63
75418;BME280;63997;52.112;5.420;2023-06-14T04:26:19;101719.44;;;15.34;61.85
75418;BME280;63997;52.112;5.420;2023-06-14T04:28:46;101717.22;;;15.37;61.62
75418;BME280;63997;52.112;5.420;2023-06-14T04:31:13;101708.19;;;15.41;61.53
75418;BME280;63997;52.112;5.420;2023-06-14T04:33:39;101716.03;;;15.46;61.65
75418;BME280;63997;52.112;5.420;2023-06-14T04:36:12;101715.81;;;15.51;62.13
75418;BME280;63997;52.112;5.420;2023-06-14T04:38:39;101723.53;;;15.53;60.94
75418;BME280;63997;52.112;5.420;2023-06-14T04:41:05;101717.38;;;15.52;61.56
75418;BME280;63997;52.112;5.420;2023-06-14T04:43:32;101723.22;;;15.54;62.50
75418;BME280;63997;52.112;5.420;2023-06-14T04:46:07;101730.25;;;15.59;63.61
75418;BME280;63997;52.112;5.420;2023-06-14T04:48:39;101729.28;;;15.64;61.76
75418;BME280;63997;52.112;5.420;2023-06-14T04:51:08;101724.50;;;15.69;61.96
75418;BME280;63997;52.112;5.420;2023-06-14T04:53:35;101724.63;;;15.73;63.53
75418;BME280;63997;52.112;5.420;2023-06-14T04:56:02;101729.31;;;15.76;62.20
75418;BME280;63997;52.112;5.420;2023-06-14T04:58:29;101728.31;;;15.80;62.20
75418;BME280;63997;52.112;5.420;2023-06-14T05:00:56;101732.69;;;15.85;59.71
75418;BME280;63997;52.112;5.420;2023-06-14T05:03:23;101730.25;;;15.92;61.71
75418;BME280;63997;52.112;5.420;2023-06-14T05:05:50;101735.84;;;15.99;62.34
75418;BME280;63997;52.112;5.420;2023-06-14T05:08:17;101725.09;;;15.99;60.84
75418;BME280;63997;52.112;5.420;2023-06-14T05:10:43;101730.72;;;16.06;59.82
75418;BME280;63997;52.112;5.420;2023-06-14T05:13:09;101733.63;;;16.13;59.70
75418;BME280;63997;52.112;5.420;2023-06-14T05:15:37;101731.16;;;16.21;59.36
75418;BME280;63997;52.112;5.420;2023-06-14T05:18:04;101736.31;;;16.26;59.38
75418;BME280;63997;52.112;5.420;2023-06-14T05:20:30;101747.94;;;16.30;60.24
75418;BME280;63997;52.112;5.420;2023-06-14T05:22:57;101743.94;;;16.36;60.38
75418;BME280;63997;52.112;5.420;2023-06-14T05:25:24;101744.13;;;16.43;59.75
75418;BME280;63997;52.112;5.420;2023-06-14T05:27:50;101746.59;;;16.48;59.49
75418;BME280;63997;52.112;5.420;2023-06-14T05:30:17;101736.06;;;16.55;59.64
75418;BME280;63997;52.112;5.420;2023-06-14T05:32:43;101740.13;;;16.61;59.06
75418;BME280;63997;52.112;5.420;2023-06-14T05:35:10;101737.28;;;16.70;58.35
75418;BME280;63997;52.112;5.420;2023-06-14T05:37:37;101745.25;;;16.79;59.13
75418;BME280;63997;52.112;5.420;2023-06-14T05:40:04;101750.50;;;16.87;58.15
75418;BME280;63997;52.112;5.420;2023-06-14T05:42:32;101749.25;;;16.97;59.50
75418;BME280;63997;52.112;5.420;2023-06-14T05:44:59;101758.22;;;17.01;57.70
75418;BME280;63997;52.112;5.420;2023-06-14T05:47:26;101747.41;;;17.13;59.67
75418;BME280;63997;52.112;5.420;2023-06-14T05:49:54;101753.53;;;17.26;60.55
75418;BME280;63997;52.112;5.420;2023-06-14T05:52:21;101753.16;;;17.40;59.49
75418;BME280;63997;52.112;5.420;2023-06-14T05:54:47;101751.41;;;18.55;55.57
75418;BME280;63997;52.112;5.420;2023-06-14T05:57:14;101747.50;;;21.98;49.21
75418;BME280;63997;52.112;5.420;2023-06-14T05:59:41;101738.88;;;24.85;42.18
75418;BME280;63997;52.112;5.420;2023-06-14T06:02:07;101744.97;;;26.93;38.39
75418;BME280;63997;52.112;5.420;2023-06-14T06:04:35;101747.59;;;27.34;33.68
75418;BME280;63997;52.112;5.420;2023-06-14T06:07:02;101758.63;;;25.73;35.95
75418;BME280;63997;52.112;5.420;2023-06-14T06:09:30;101754.94;;;25.45;37.62
75418;BME280;63997;52.112;5.420;2023-06-14T06:11:56;101754.09;;;26.83;35.66
75418;BME280;63997;52.112;5.420;2023-06-14T06:14:22;101762.09;;;26.97;35.31
75418;BME280;63997;52.112;5.420;2023-06-14T06:16:49;101764.41;;;28.30;33.35
75418;BME280;63997;52.112;5.420;2023-06-14T06:19:15;101756.03;;;30.31;29.33
75418;BME280;63997;52.112;5.420;2023-06-14T06:21:42;101750.50;;;31.53;27.31
75418;BME280;63997;52.112;5.420;2023-06-14T06:24:08;101756.47;;;32.55;26.76
75418;BME280;63997;52.112;5.420;2023-06-14T06:26:35;101749.69;;;33.50;24.54
75418;BME280;63997;52.112;5.420;2023-06-14T06:29:01;101751.13;;;34.28;23.91
75418;BME280;63997;52.112;5.420;2023-06-14T06:31:28;101749.31;;;34.94;23.78
75418;BME280;63997;52.112;5.420;2023-06-14T06:33:55;101760.13;;;35.49;22.23
75418;BME280;63997;52.112;5.420;2023-06-14T06:36:22;101750.81;;;35.62;20.75
75418;BME280;63997;52.112;5.420;2023-06-14T06:38:48;101773.31;;;35.55;20.05
75418;BME280;63997;52.112;5.420;2023-06-14T06:41:15;101761.84;;;35.86;19.43
75418;BME280;63997;52.112;5.420;2023-06-14T06:43:41;101761.75;;;36.19;20.82
75418;BME280;63997;52.112;5.420;2023-06-14T06:46:08;101768.78;;;36.44;19.83
75418;BME280;63997;52.112;5.420;2023-06-14T06:48:34;101766.16;;;36.85;19.53
75418;BME280;63997;52.112;5.420;2023-06-14T06:51:01;101776.28;;;37.02;18.44
75418;BME280;63997;52.112;5.420;2023-06-14T06:53:27;101782.72;;;37.29;18.36
75418;BME280;63997;52.112;5.420;2023-06-14T06:56:05;101781.75;;;37.32;18.16
75418;BME280;63997;52.112;5.420;2023-06-14T06:58:31;101788.00;;;35.94;20.68
75418;BME280;63997;52.112;5.420;2023-06-14T07:00:58;101786.03;;;34.95;21.84
75418;BME280;63997;52.112;5.420;2023-06-14T07:03:24;101788.44;;;35.35;20.23
75418;BME280;63997;52.112;5.420;2023-06-14T07:05:51;101793.50;;;35.46;19.21
75418;BME280;63997;52.112;5.420;2023-06-14T07:08:17;101785.94;;;34.71;20.51
75418;BME280;63997;52.112;5.420;2023-06-14T07:10:43;101791.59;;;34.77;21.71
75418;BME280;63997;52.112;5.420;2023-06-14T07:13:10;101790.28;;;35.47;19.93
75418;BME280;63997;52.112;5.420;2023-06-14T07:15:37;101788.63;;;34.89;21.94
75418;BME280;63997;52.112;5.420;2023-06-14T07:18:03;101789.78;;;35.16;21.74
75418;BME280;63997;52.112;5.420;2023-06-14T07:20:30;101799.13;;;35.61;20.09
75418;BME280;63997;52.112;5.420;2023-06-14T07:22:57;101799.66;;;35.98;19.21
75418;BME280;63997;52.112;5.420;2023-06-14T07:25:23;101796.63;;;35.30;20.08
75418;BME280;63997;52.112;5.420;2023-06-14T07:27:50;101810.19;;;33.93;21.67
75418;BME280;63997;52.112;5.420;2023-06-14T07:30:16;101811.22;;;33.28;22.75
75418;BME280;63997;52.112;5.420;2023-06-14T07:32:42;101808.53;;;33.96;22.93
75418;BME280;63997;52.112;5.420;2023-06-14T07:35:09;101797.31;;;34.55;20.81
75418;BME280;63997;52.112;5.420;2023-06-14T07:37:36;101799.25;;;34.82;20.04
75418;BME280;63997;52.112;5.420;2023-06-14T07:40:03;101818.44;;;33.84;21.16
75418;BME280;63997;52.112;5.420;2023-06-14T07:42:34;101811.09;;;32.79;22.72
75418;BME280;63997;52.112;5.420;2023-06-14T07:45:03;101803.47;;;32.39;23.67
75418;BME280;63997;52.112;5.420;2023-06-14T07:47:29;101818.00;;;32.27;24.29
75418;BME280;63997;52.112;5.420;2023-06-14T07:49:56;101815.03;;;31.99;24.95
75418;BME280;63997;52.112;5.420;2023-06-14T07:52:23;101815.63;;;31.56;24.58
75418;BME280;63997;52.112;5.420;2023-06-14T07:54:49;101828.47;;;31.21;25.04
75418;BME280;63997;52.112;5.420;2023-06-14T07:57:16;101814.91;;;31.01;23.99
75418;BME280;63997;52.112;5.420;2023-06-14T07:59:42;101829.41;;;30.89;24.43
75418;BME280;63997;52.112;5.420;2023-06-14T08:02:09;101830.66;;;30.71;25.67
75418;BME280;63997;52.112;5.420;2023-06-14T08:04:35;101826.72;;;30.72;25.43
75418;BME280;63997;52.112;5.420;2023-06-14T08:07:02;101819.31;;;30.08;26.03
75418;BME280;63997;52.112;5.420;2023-06-14T08:09:32;101829.13;;;29.76;26.29
75418;BME280;63997;52.112;5.420;2023-06-14T08:11:58;101837.63;;;29.82;27.40
75418;BME280;63997;52.112;5.420;2023-06-14T08:14:25;101833.97;;;29.52;29.61
75418;BME280;63997;52.112;5.420;2023-06-14T08:16:51;101834.22;;;29.41;28.59
75418;BME280;63997;52.112;5.420;2023-06-14T08:19:18;101823.47;;;29.31;27.91
75418;BME280;63997;52.112;5.420;2023-06-14T08:21:45;101827.41;;;29.30;27.69
75418;BME280;63997;52.112;5.420;2023-06-14T08:24:12;101827.38;;;29.13;25.94
75418;BME280;63997;52.112;5.420;2023-06-14T08:26:39;101832.03;;;28.53;27.77
75418;BME280;63997;52.112;5.420;2023-06-14T08:29:05;101829.47;;;28.42;27.07
75418;BME280;63997;52.112;5.420;2023-06-14T08:31:35;101828.91;;;28.28;28.58
75418;BME280;63997;52.112;5.420;2023-06-14T08:34:01;101825.50;;;28.24;27.80
75418;BME280;63997;52.112;5.420;2023-06-14T08:36:32;101820.97;;;28.13;27.32
75418;BME280;63997;52.112;5.420;2023-06-14T08:38:58;101827.38;;;27.80;27.08
75418;BME280;63997;52.112;5.420;2023-06-14T08:41:25;101829.03;;;27.74;27.37
75418;BME280;63997;52.112;5.420;2023-06-14T08:43:52;101831.50;;;27.61;28.00
75418;BME280;63997;52.112;5.420;2023-06-14T08:46:18;101820.75;;;27.50;27.19
75418;BME280;63997;52.112;5.420;2023-06-14T08:48:49;101829.41;;;27.45;27.52
75418;BME280;63997;52.112;5.420;2023-06-14T08:51:18;101827.03;;;27.47;27.06
75418;BME280;63997;52.112;5.420;2023-06-14T08:53:45;101827.47;;;27.42;28.89
75418;BME280;63997;52.112;5.420;2023-06-14T08:56:12;101827.22;;;27.33;27.73
75418;BME280;63997;52.112;5.420;2023-06-14T08:58:43;101832.78;;;27.26;29.52
75418;BME280;63997;52.112;5.420;2023-06-14T09:01:11;101831.25;;;27.21;28.40
75418;BME280;63997;52.112;5.420;2023-06-14T09:03:41;101825.75;;;27.25;28.73
75418;BME280;63997;52.112;5.420;2023-06-14T09:06:08;101828.16;;;27.23;26.81
75418;BME280;63997;52.112;5.420;2023-06-14T09:08:43;101835.31;;;27.09;28.37
75418;BME280;63997;52.112;5.420;2023-06-14T09:11:14;101833.78;;;27.08;28.55
75418;BME280;63997;52.112;5.420;2023-06-14T09:13:41;101827.19;;;27.02;29.74
75418;BME280;63997;52.112;5.420;2023-06-14T09:16:08;101832.63;;;27.06;28.20
75418;BME280;63997;52.112;5.420;2023-06-14T09:18:46;101832.63;;;27.06;28.46
75418;BME280;63997;52.112;5.420;2023-06-14T09:21:16;101839.28;;;27.01;27.27
75418;BME280;63997;52.112;5.420;2023-06-14T09:23:44;101833.63;;;26.85;28.33
75418;BME280;63997;52.112;5.420;2023-06-14T09:26:18;101833.53;;;26.92;28.75
75418;BME280;63997;52.112;5.420;2023-06-14T09:28:50;101836.03;;;26.79;27.40
75418;BME280;63997;52.112;5.420;2023-06-14T09:31:19;101844.31;;;26.72;28.28
75418;BME280;63997;52.112;5.420;2023-06-14T09:33:48;101843.66;;;26.57;28.50
75418;BME280;63997;52.112;5.420;2023-06-14T09:36:21;101851.94;;;26.47;28.32
75418;BME280;63997;52.112;5.420;2023-06-14T09:39:03;101846.81;;;26.52;28.70
75418;BME280;63997;52.112;5.420;2023-06-14T09:41:35;101843.84;;;26.77;29.62
75418;BME280;63997;52.112;5.420;2023-06-14T09:44:03;101834.38;;;26.89;28.25
75418;BME280;63997;52.112;5.420;2023-06-14T09:46:37;101842.63;;;26.82;28.64
75418;BME280;63997;52.112;5.420;2023-06-14T09:49:05;101841.91;;;26.78;27.60
75418;BME280;63997;52.112;5.420;2023-06-14T09:51:32;101839.13;;;26.81;27.31
75418;BME280;63997;52.112;5.420;2023-06-14T09:54:03;101837.56;;;26.80;28.48
75418;BME280;63997;52.112;5.420;2023-06-14T09:56:44;101843.34;;;26.89;29.58
75418;BME280;63997;52.112;5.420;2023-06-14T09:59:12;101836.38;;;26.81;27.35
75418;BME280;63997;52.112;5.420;2023-06-14T10:01:43;101840.06;;;26.68;28.87
75418;BME280;63997;52.112;5.420;2023-06-14T10:04:10;101835.13;;;26.55;29.49
75418;BME280;63997;52.112;5.420;2023-06-14T10:06:40;101833.50;;;26.58;28.36
75418;BME280;63997;52.112;5.420;2023-06-14T10:09:09;101818.22;;;26.68;28.68
75418;BME280;63997;52.112;5.420;2023-06-14T10:11:36;101827.09;;;26.75;27.84
75418;BME280;63997;52.112;5.420;2023-06-14T10:14:05;101821.88;;;26.88;27.62
75418;BME280;63997;52.112;5.420;2023-06-14T10:16:52;101822.63;;;26.92;28.08
75418;BME280;63997;52.112;5.420;2023-06-14T10:19:30;101819.34;;;27.08;28.89
75418;BME280;63997;52.112;5.420;2023-06-14T10:22:06;101827.94;;;27.06;25.54
75418;BME280;63997;52.112;5.420;2023-06-14T10:24:38;101829.22;;;26.95;25.73
75418;BME280;63997;52.112;5.420;2023-06-14T10:27:07;101837.38;;;26.98;25.73
75418;BME280;63997;52.112;5.420;2023-06-14T10:32:18;101830.34;;;27.01;26.34
75418;BME280;63997;52.112;5.420;2023-06-14T10:34:45;101826.31;;;27.12;26.44
75418;BME280;63997;52.112;5.420;2023-06-14T10:37:13;101823.13;;;27.18;26.21
75418;BME280;63997;52.112;5.420;2023-06-14T10:39:41;101825.31;;;27.30;26.74
75418;BME280;63997;52.112;5.420;2023-06-14T10:42:08;101818.94;;;27.09;27.17
75418;BME280;63997;52.112;5.420;2023-06-14T10:44:46;101813.97;;;26.97;27.50
75418;BME280;63997;52.112;5.420;2023-06-14T10:47:30;101824.47;;;26.99;28.23
75418;BME280;63997;52.112;5.420;2023-06-14T10:50:09;101822.41;;;27.13;26.97
75418;BME280;63997;52.112;5.420;2023-06-14T10:52:41;101810.47;;;27.31;26.05
75418;BME280;63997;52.112;5.420;2023-06-14T10:55:16;101823.66;;;27.36;27.05
75418;BME280;63997;52.112;5.420;2023-06-14T10:57:48;101818.09;;;27.43;27.38
75418;BME280;63997;52.112;5.420;2023-06-14T11:00:24;101810.53;;;27.54;28.51
75418;BME280;63997;52.112;5.420;2023-06-14T11:06:01;101821.84;;;27.26;27.54
75418;BME280;63997;52.112;5.420;2023-06-14T11:08:40;101817.41;;;27.39;26.81
75418;BME280;63997;52.112;5.420;2023-06-14T11:11:13;101820.16;;;27.35;27.66
75418;BME280;63997;52.112;5.420;2023-06-14T11:13:42;101813.09;;;27.65;27.31
75418;BME280;63997;52.112;5.420;2023-06-14T11:16:13;101818.03;;;27.77;26.25
75418;BME280;63997;52.112;5.420;2023-06-14T11:18:41;101814.53;;;28.00;29.41
75418;BME280;63997;52.112;5.420;2023-06-14T11:21:07;101811.88;;;28.20;27.25
75418;BME280;63997;52.112;5.420;2023-06-14T11:23:35;101817.72;;;28.45;26.39
75418;BME280;63997;52.112;5.420;2023-06-14T11:26:03;101814.53;;;28.47;25.86
75418;BME280;63997;52.112;5.420;2023-06-14T11:28:40;101826.69;;;28.46;25.97
75418;BME280;63997;52.112;5.420;2023-06-14T11:31:09;101813.63;;;28.54;26.16
75418;BME280;63997;52.112;5.420;2023-06-14T11:33:36;101811.91;;;28.63;27.52
75418;BME280;63997;52.112;5.420;2023-06-14T11:36:03;101803.31;;;28.61;25.59
75418;BME280;63997;52.112;5.420;2023-06-14T11:38:35;101804.03;;;28.65;27.09
75418;BME280;63997;52.112;5.420;2023-06-14T11:41:02;101802.47;;;28.84;25.82
75418;BME280;63997;52.112;5.420;2023-06-14T11:43:28;101793.75;;;28.89;24.34
75418;BME280;63997;52.112;5.420;2023-06-14T11:45:58;101793.75;;;28.89;25.24
75418;BME280;63997;52.112;5.420;2023-06-14T11:48:41;101805.72;;;28.99;24.57
75418;BME280;63997;52.112;5.420;2023-06-14T11:51:08;101794.50;;;29.13;25.82
75418;BME280;63997;52.112;5.420;2023-06-14T11:53:35;101792.56;;;29.30;24.87
75418;BME280;63997;52.112;5.420;2023-06-14T11:56:02;101803.09;;;29.32;23.86
75418;BME280;63997;52.112;5.420;2023-06-14T11:58:29;101793.56;;;29.20;24.48
75418;BME280;63997;52.112;5.420;2023-06-14T12:00:56;101801.34;;;29.21;24.81
75418;BME280;63997;52.112;5.420;2023-06-14T12:03:24;101802.75;;;29.30;24.38
75418;BME280;63997;52.112;5.420;2023-06-14T12:06:05;101802.91;;;29.59;25.96
75418;BME280;63997;52.112;5.420;2023-06-14T12:08:37;101795.69;;;29.65;25.73
75418;BME280;63997;52.112;5.420;2023-06-14T12:11:11;101795.59;;;30.01;26.40
75418;BME280;63997;52.112;5.420;2023-06-14T12:13:39;101792.34;;;30.06;26.34
75418;BME280;63997;52.112;5.420;2023-06-14T12:16:11;101800.25;;;29.71;23.60
75418;BME280;63997;52.112;5.420;2023-06-14T12:18:39;101804.19;;;29.70;24.91
75418;BME280;63997;52.112;5.420;2023-06-14T12:21:06;101795.84;;;29.90;23.91
75418;BME280;63997;52.112;5.420;2023-06-14T12:23:43;101796.47;;;29.98;24.66
75418;BME280;63997;52.112;5.420;2023-06-14T12:26:18;101797.66;;;30.13;27.30
75418;BME280;63997;52.112;5.420;2023-06-14T12:28:46;101799.78;;;30.22;24.90
75418;BME280;63997;52.112;5.420;2023-06-14T12:31:14;101796.19;;;30.09;25.23
75418;BME280;63997;52.112;5.420;2023-06-14T12:33:41;101797.38;;;30.08;24.71
75418;BME280;63997;52.112;5.420;2023-06-14T12:36:09;101796.47;;;29.98;24.10
75418;BME280;63997;52.112;5.420;2023-06-14T12:38:36;101791.13;;;30.23;23.37
75418;BME280;63997;52.112;5.420;2023-06-14T12:41:03;101802.88;;;30.08;24.95
75418;BME280;63997;52.112;5.420;2023-06-14T12:43:30;101811.38;;;29.64;23.33
75418;BME280;63997;52.112;5.420;2023-06-14T12:45:57;101800.66;;;29.54;24.02
75418;BME280;63997;52.112;5.420;2023-06-14T12:48:23;101795.78;;;29.77;24.89
75418;BME280;63997;52.112;5.420;2023-06-14T12:50:50;101795.78;;;29.94;24.38
75418;BME280;63997;52.112;5.420;2023-06-14T12:53:16;101799.22;;;29.98;24.23
75418;BME280;63997;52.112;5.420;2023-06-14T12:55:43;101793.38;;;29.96;24.70
75418;BME280;63997;52.112;5.420;2023-06-14T12:58:10;101796.97;;;30.09;23.32
75418;BME280;63997;52.112;5.420;2023-06-14T13:00:39;101797.28;;;30.27;23.41
75418;BME280;63997;52.112;5.420;2023-06-14T13:03:05;101802.34;;;30.29;22.48